createdAt,value
2022-12-28T00:02:12.345Z,1.73
2022-12-28T00:04:39.052Z,1.72
2022-12-28T00:07:05.864Z,1.71
2022-12-28T00:09:32.519Z,1.70
2022-12-28T00:11:59.196Z,1.70
2022-12-28T00:14:26.081Z,1.70
2022-12-28T00:16:52.718Z,1.70
2022-12-28T00:19:19.512Z,1.68
2022-12-28T00:21:46.467Z,1.67
2022-12-28T00:24:18.977Z,1.66
2022-12-28T00:26:45.822Z,1.64
2022-12-28T00:29:12.546Z,1.63
2022-12-28T00:31:39.366Z,1.61
2022-12-28T00:34:06.106Z,1.59
2022-12-28T00:37:09.483Z,1.56
2022-12-28T00:39:20.647Z,1.54
2022-12-28T00:41:47.493Z,1.53
2022-12-28T00:44:14.140Z,1.52
2022-12-28T00:46:41.277Z,1.51
2022-12-28T00:49:08.039Z,1.50
2022-12-28T00:51:34.824Z,1.49
2022-12-28T00:54:01.555Z,1.47
2022-12-28T00:56:28.246Z,1.46
2022-12-28T00:58:58.827Z,1.45
2022-12-28T01:01:26.186Z,1.45
2022-12-28T01:03:55.751Z,1.45
2022-12-28T01:06:25.612Z,1.45
2022-12-28T01:08:52.473Z,1.47
2022-12-28T01:11:20.884Z,1.49
2022-12-28T01:13:48.010Z,1.51
2022-12-28T01:16:16.448Z,1.52
2022-12-28T01:18:44.024Z,1.54
2022-12-28T01:21:18.443Z,1.56
2022-12-28T01:23:45.887Z,1.58
2022-12-28T01:26:12.707Z,1.60
2022-12-28T01:28:39.320Z,1.63
2022-12-28T01:31:07.565Z,1.65
2022-12-28T01:33:34.273Z,1.67
2022-12-28T01:36:08.737Z,1.68
2022-12-28T01:38:37.621Z,1.69
2022-12-28T01:41:06.609Z,1.71
2022-12-28T01:43:43.653Z,1.73
2022-12-28T01:46:13.199Z,1.74
2022-12-28T01:48:51.313Z,1.76
2022-12-28T01:51:18.358Z,1.77
2022-12-28T01:53:45.149Z,1.78
2022-12-28T01:56:13.602Z,1.79
2022-12-28T01:58:40.350Z,1.79
2022-12-28T02:01:07.546Z,1.79
2022-12-28T02:03:34.371Z,1.78
2022-12-28T02:06:02.068Z,1.81
2022-12-28T02:08:37.367Z,1.81
2022-12-28T02:11:04.055Z,1.81
2022-12-28T02:13:30.807Z,1.83
2022-12-28T02:15:57.505Z,1.84
2022-12-28T02:18:25.328Z,1.85
2022-12-28T02:21:00.362Z,1.83
2022-12-28T02:23:45.311Z,1.87
2022-12-28T02:26:46.161Z,1.87
2022-12-28T02:29:34.808Z,1.88
2022-12-28T02:32:07.559Z,1.90
2022-12-28T02:34:41.907Z,1.91
2022-12-28T02:37:24.332Z,1.91
2022-12-28T02:39:54.667Z,1.91
2022-12-28T02:42:21.406Z,1.91
2022-12-28T02:45:06.985Z,1.92
2022-12-28T02:47:52.676Z,1.92
2022-12-28T02:50:19.366Z,1.91
2022-12-28T02:52:52.130Z,1.91
2022-12-28T02:56:03.689Z,1.87
2022-12-28T02:58:35.417Z,1.91
2022-12-28T03:01:11.563Z,1.92
2022-12-28T03:03:41.550Z,1.92
2022-12-28T03:06:32.409Z,1.92
2022-12-28T03:09:23.398Z,1.93
2022-12-28T03:12:05.315Z,1.93
2022-12-28T03:14:42.782Z,1.95
2022-12-28T03:17:28.548Z,1.96
2022-12-28T03:20:19.636Z,1.98
2022-12-28T03:23:06.054Z,1.98
2022-12-28T03:25:54.604Z,1.99
2022-12-28T03:28:45.619Z,1.98
2022-12-28T03:31:18.557Z,1.97
2022-12-28T03:33:50.494Z,1.97
2022-12-28T03:36:26.224Z,1.97
2022-12-28T03:38:52.964Z,1.98
2022-12-28T03:41:24.296Z,1.98
2022-12-28T03:43:54.061Z,1.99
2022-12-28T03:46:40.954Z,2.00
2022-12-28T03:49:10.558Z,2.00
2022-12-28T03:51:37.304Z,2.00
2022-12-28T03:54:09.878Z,1.98
2022-12-28T03:56:37.504Z,2.00
2022-12-28T03:59:04.357Z,2.01
2022-12-28T04:01:37.614Z,2.02
2022-12-28T04:04:04.297Z,2.03
2022-12-28T04:06:32.417Z,2.01
2022-12-28T04:08:59.188Z,2.00
2022-12-28T04:11:27.411Z,2.00
2022-12-28T04:13:54.438Z,2.01
2022-12-28T04:16:21.508Z,2.01
2022-12-28T04:18:48.420Z,2.02
2022-12-28T04:21:15.858Z,2.04
2022-12-28T04:23:43.634Z,2.05
2022-12-28T04:26:36.680Z,2.05
2022-12-28T04:29:03.568Z,2.06
2022-12-28T04:31:56.331Z,2.07
2022-12-28T04:34:23.297Z,2.07
2022-12-28T04:36:56.633Z,2.07
2022-12-28T04:39:23.477Z,2.07
2022-12-28T04:41:50.258Z,2.06
2022-12-28T04:44:16.899Z,2.05
2022-12-28T04:46:43.692Z,2.04
2022-12-28T04:49:10.389Z,2.01
2022-12-28T04:51:37.175Z,1.96
2022-12-28T04:54:03.981Z,1.90
2022-12-28T04:56:30.969Z,1.87
2022-12-28T04:58:59.400Z,1.82
2022-12-28T05:01:26.246Z,1.78
2022-12-28T05:03:56.507Z,1.73
2022-12-28T05:06:24.395Z,1.72
2022-12-28T05:08:51.382Z,1.71
2022-12-28T05:11:23.065Z,1.69
2022-12-28T05:13:49.993Z,1.66
2022-12-28T05:16:18.320Z,1.67
2022-12-28T05:18:45.075Z,1.66
2022-12-28T05:21:12.770Z,1.67
2022-12-28T05:23:39.651Z,1.67
2022-12-28T05:26:06.536Z,1.69
2022-12-28T05:28:33.296Z,1.70
2022-12-28T05:31:05.603Z,1.70
2022-12-28T05:33:33.975Z,1.69
2022-12-28T05:36:23.249Z,1.69
2022-12-28T05:38:50.258Z,1.70
2022-12-28T05:41:19.212Z,1.72
2022-12-28T05:43:46.321Z,1.73
2022-12-28T05:46:14.758Z,1.75
2022-12-28T05:48:41.585Z,1.75
2022-12-28T05:51:12.301Z,1.76
2022-12-28T05:53:39.194Z,1.77
2022-12-28T05:56:10.705Z,1.77
2022-12-28T05:58:40.514Z,1.77
2022-12-28T06:01:15.171Z,1.79
2022-12-28T06:03:42.066Z,1.80
2022-12-28T06:06:09.703Z,1.77
2022-12-28T06:08:36.887Z,1.73
2022-12-28T06:11:04.987Z,1.70
2022-12-28T06:13:31.875Z,1.69
2022-12-28T06:15:58.613Z,1.68
2022-12-28T06:18:28.523Z,1.68
2022-12-28T06:20:57.088Z,1.68
2022-12-28T06:23:24.019Z,1.68
2022-12-28T06:25:50.747Z,1.68
2022-12-28T06:28:17.463Z,1.66
2022-12-28T06:30:48.960Z,1.67
2022-12-28T06:33:19.083Z,1.65
2022-12-28T06:35:45.802Z,1.65
2022-12-28T06:38:12.526Z,1.67
2022-12-28T06:41:11.730Z,1.70
2022-12-28T06:43:25.999Z,1.71
2022-12-28T06:45:56.722Z,1.72
2022-12-28T06:48:23.521Z,1.72
2022-12-28T06:50:59.936Z,1.73
2022-12-28T06:53:28.197Z,1.73
2022-12-28T06:55:55.864Z,1.73
2022-12-28T06:58:23.600Z,1.72
2022-12-28T07:00:50.403Z,1.72
2022-12-28T07:03:17.061Z,1.74
2022-12-28T07:05:43.976Z,1.74
2022-12-28T07:08:12.689Z,1.71
2022-12-28T07:10:40.020Z,1.72
2022-12-28T07:13:06.933Z,1.72
2022-12-28T07:15:35.408Z,1.72
2022-12-28T07:18:02.200Z,1.73
2022-12-28T07:20:28.823Z,1.73
2022-12-28T07:22:55.540Z,1.72
2022-12-28T07:25:22.355Z,1.72
2022-12-28T07:27:49.092Z,1.72
2022-12-28T07:30:15.843Z,1.72
2022-12-28T07:32:42.555Z,1.72
2022-12-28T07:35:09.487Z,1.71
2022-12-28T07:37:36.233Z,1.72
2022-12-28T07:40:03.223Z,1.74
2022-12-28T07:42:29.988Z,1.76
2022-12-28T07:44:56.725Z,1.77
2022-12-28T07:47:23.579Z,1.79
2022-12-28T07:49:50.210Z,1.80
2022-12-28T07:52:16.910Z,1.78
2022-12-28T07:54:43.586Z,1.78
2022-12-28T07:57:10.307Z,1.78
2022-12-28T07:59:37.036Z,1.76
2022-12-28T08:02:03.830Z,1.76
2022-12-28T08:04:30.494Z,1.76
2022-12-28T08:06:57.220Z,1.77
2022-12-28T08:09:23.931Z,1.76
2022-12-28T08:11:50.669Z,1.75
2022-12-28T08:14:17.400Z,1.74
2022-12-28T08:16:44.564Z,1.76
2022-12-28T08:19:12.124Z,1.78
2022-12-28T08:21:42.145Z,1.79
2022-12-28T08:24:09.767Z,1.81
2022-12-28T08:26:38.433Z,1.82
2022-12-28T08:29:07.376Z,1.84
2022-12-28T08:31:36.071Z,1.88
2022-12-28T08:34:03.354Z,1.90
2022-12-28T08:36:30.087Z,1.91
2022-12-28T08:38:57.616Z,1.96
2022-12-28T08:41:25.433Z,2.01
2022-12-28T08:43:52.491Z,2.04
2022-12-28T08:46:23.806Z,2.07
2022-12-28T08:48:51.516Z,2.08
2022-12-28T08:51:19.904Z,2.08
2022-12-28T08:53:46.804Z,2.09
2022-12-28T08:56:14.217Z,2.10
2022-12-28T08:58:41.782Z,2.09
2022-12-28T09:01:10.056Z,2.15
2022-12-28T09:03:41.273Z,2.17
2022-12-28T09:06:11.296Z,2.20
2022-12-28T09:08:38.208Z,2.24
2022-12-28T09:11:05.614Z,2.26
2022-12-28T09:13:32.486Z,2.27
2022-12-28T09:16:02.748Z,2.30
2022-12-28T09:18:29.526Z,2.32
2022-12-28T09:20:56.265Z,2.34
2022-12-28T09:23:22.964Z,2.32
2022-12-28T09:25:49.666Z,2.36
2022-12-28T09:28:16.358Z,2.40
2022-12-28T09:30:43.007Z,2.43
2022-12-28T09:33:28.368Z,2.47
2022-12-28T09:35:59.742Z,2.51
2022-12-28T09:38:26.502Z,2.54
2022-12-28T09:40:53.286Z,2.58
2022-12-28T09:43:20.355Z,2.59
2022-12-28T09:45:47.174Z,2.60
2022-12-28T09:48:14.692Z,2.61
2022-12-28T09:50:41.980Z,2.63
2022-12-28T09:53:23.518Z,2.64
2022-12-28T09:56:15.639Z,2.67
2022-12-28T09:58:47.626Z,2.73
2022-12-28T10:01:14.929Z,2.79
2022-12-28T10:03:42.560Z,2.86
2022-12-28T10:06:13.933Z,2.91
2022-12-28T10:08:49.447Z,2.96
2022-12-28T10:11:20.313Z,3.01
2022-12-28T10:13:55.390Z,3.06
2022-12-28T10:16:23.693Z,3.08
2022-12-28T10:18:50.512Z,3.09
2022-12-28T10:21:18.708Z,3.10
2022-12-28T10:25:43.247Z,3.08
2022-12-28T10:28:10.238Z,3.03
2022-12-28T10:31:04.831Z,3.00
2022-12-28T10:33:31.713Z,2.98
2022-12-28T10:35:59.352Z,2.98
2022-12-28T10:38:32.948Z,2.98
2022-12-28T10:41:09.728Z,3.00
2022-12-28T10:43:37.568Z,2.99
2022-12-28T10:46:06.815Z,2.98
2022-12-28T10:48:38.284Z,3.00
2022-12-28T10:51:19.028Z,3.01
2022-12-28T10:53:50.438Z,3.02
2022-12-28T10:56:20.269Z,3.06
2022-12-28T10:58:48.216Z,3.11
2022-12-28T11:01:15.011Z,3.17
2022-12-28T11:03:44.849Z,3.22
2022-12-28T11:06:18.780Z,3.24
2022-12-28T11:09:19.640Z,3.27
2022-12-28T11:11:47.057Z,3.32
2022-12-28T11:14:16.854Z,3.34
2022-12-28T11:16:43.710Z,3.34
2022-12-28T11:19:10.783Z,3.30
2022-12-28T11:21:37.613Z,3.22
2022-12-28T11:24:04.743Z,3.16
2022-12-28T11:26:31.654Z,3.12
2022-12-28T11:28:58.444Z,3.10
2022-12-28T11:31:38.439Z,3.06
2022-12-28T11:34:06.517Z,2.99
2022-12-28T11:36:37.527Z,2.99
2022-12-28T11:39:27.461Z,2.97
2022-12-28T11:44:44.924Z,2.87
2022-12-28T11:47:28.640Z,2.79
2022-12-28T11:49:55.509Z,2.75
2022-12-28T11:52:27.547Z,2.74
2022-12-28T11:54:58.801Z,2.74
2022-12-28T11:57:43.879Z,2.73
2022-12-28T12:00:22.643Z,2.69
2022-12-28T12:02:57.365Z,2.71
2022-12-28T12:05:39.284Z,2.68
2022-12-28T12:08:12.100Z,2.67
2022-12-28T12:10:39.682Z,2.68
2022-12-28T12:13:25.314Z,2.69
2022-12-28T12:15:59.209Z,2.69
2022-12-28T12:18:26.975Z,2.69
2022-12-28T12:21:08.892Z,2.69
2022-12-28T12:23:43.125Z,2.69
2022-12-28T12:26:20.948Z,2.68
2022-12-28T12:28:49.187Z,2.69
2022-12-28T12:31:37.666Z,2.69
2022-12-28T12:34:19.085Z,2.67
2022-12-28T12:37:04.841Z,2.67
2022-12-28T12:39:53.522Z,2.67
2022-12-28T12:42:24.861Z,2.68
2022-12-28T12:44:58.888Z,2.67
2022-12-28T12:47:37.924Z,2.66
2022-12-28T12:50:41.930Z,2.67
2022-12-28T12:53:25.188Z,2.70
2022-12-28T12:56:12.147Z,2.71
2022-12-28T12:58:52.753Z,2.72
2022-12-28T13:01:40.992Z,2.73
2022-12-28T13:04:09.460Z,2.73
2022-12-28T13:06:36.253Z,2.73
2022-12-28T13:09:05.615Z,2.72
2022-12-28T13:11:35.996Z,2.73
2022-12-28T13:14:02.689Z,2.71
2022-12-28T13:16:29.918Z,2.71
2022-12-28T13:18:57.516Z,2.70
2022-12-28T13:21:25.832Z,2.71
2022-12-28T13:23:52.843Z,2.70
2022-12-28T13:26:30.005Z,2.70
2022-12-28T13:29:04.118Z,2.73
2022-12-28T13:31:40.456Z,2.75
2022-12-28T13:34:13.103Z,2.78
2022-12-28T13:36:49.847Z,2.79
2022-12-28T13:39:18.250Z,2.81
2022-12-28T13:41:49.598Z,2.82
2022-12-28T13:44:28.620Z,2.85
2022-12-28T13:46:59.044Z,2.88
2022-12-28T13:49:25.755Z,2.91
2022-12-28T13:51:53.712Z,2.91
2022-12-28T13:54:21.044Z,2.89
2022-12-28T13:56:47.775Z,2.87
2022-12-28T13:59:16.234Z,2.86
2022-12-28T14:01:44.585Z,2.84
2022-12-28T14:04:51.037Z,2.83
2022-12-28T14:07:00.624Z,2.79
2022-12-28T14:09:27.284Z,2.81
2022-12-28T14:11:53.992Z,2.80
2022-12-28T14:14:20.669Z,2.78
2022-12-28T14:16:47.516Z,2.76
2022-12-28T14:19:14.143Z,2.75
2022-12-28T14:21:42.709Z,2.75
2022-12-28T14:24:14.318Z,2.75
2022-12-28T14:26:49.005Z,2.75
2022-12-28T14:29:25.947Z,2.74
2022-12-28T14:32:00.725Z,2.73
2022-12-28T14:34:29.843Z,2.73
2022-12-28T14:36:56.664Z,2.73
2022-12-28T14:39:25.895Z,2.73
2022-12-28T14:41:52.874Z,2.72
2022-12-28T14:44:40.200Z,2.71
2022-12-28T14:47:45.948Z,2.71
2022-12-28T14:50:34.308Z,2.70
2022-12-28T14:53:21.253Z,2.69
2022-12-28T14:55:55.617Z,2.67
2022-12-28T14:58:26.717Z,2.67
2022-12-28T15:01:06.024Z,2.65
2022-12-28T15:03:48.416Z,2.60
2022-12-28T15:06:15.166Z,2.59
2022-12-28T15:08:41.880Z,2.54
2022-12-28T15:11:09.311Z,2.50
2022-12-28T15:13:36.013Z,2.47
2022-12-28T15:16:04.242Z,2.45
2022-12-28T15:18:31.350Z,2.43
2022-12-28T15:20:58.100Z,2.43
2022-12-28T15:23:24.854Z,2.42
2022-12-28T15:25:51.575Z,2.42
2022-12-28T15:28:18.298Z,2.42
2022-12-28T15:30:45.000Z,2.42
2022-12-28T15:33:12.056Z,2.43
2022-12-28T15:35:38.777Z,2.42
2022-12-28T15:38:05.484Z,2.39
2022-12-28T15:40:32.207Z,2.36
2022-12-28T15:42:59.014Z,2.33
2022-12-28T15:45:25.690Z,2.30
2022-12-28T15:47:54.432Z,2.22
2022-12-28T15:50:21.551Z,2.24
2022-12-28T15:52:48.354Z,2.19
2022-12-28T15:55:15.024Z,2.14
2022-12-28T15:57:41.739Z,2.09
2022-12-28T16:00:09.041Z,2.03
2022-12-28T16:02:35.989Z,1.98
2022-12-28T16:05:02.807Z,1.93
2022-12-28T16:07:29.557Z,1.89
2022-12-28T16:09:56.297Z,1.86
2022-12-28T16:12:22.905Z,1.81
2022-12-28T16:14:49.616Z,1.77
2022-12-28T16:17:16.360Z,1.73
2022-12-28T16:19:43.154Z,1.69
2022-12-28T16:22:09.932Z,1.64
2022-12-28T16:24:36.658Z,1.58
2022-12-28T16:27:03.910Z,1.50
2022-12-28T16:29:30.726Z,1.44
2022-12-28T16:31:58.455Z,1.38
2022-12-28T19:57:38.987Z,0.23
2022-12-28T20:00:07.480Z,0.42
2022-12-28T20:02:34.414Z,0.47
2022-12-28T20:05:01.318Z,0.51
2022-12-28T20:07:28.101Z,0.56
2022-12-28T20:09:54.798Z,0.60
2022-12-28T20:12:24.803Z,0.64
2022-12-28T20:14:51.522Z,0.67
2022-12-28T20:17:18.219Z,0.69
2022-12-28T20:19:44.899Z,0.74
2022-12-28T20:22:11.668Z,0.77
2022-12-28T20:24:38.413Z,0.79
2022-12-28T20:27:05.111Z,0.81
2022-12-28T20:29:32.427Z,0.84
2022-12-28T20:31:59.204Z,0.86
2022-12-28T20:34:26.357Z,0.88
2022-12-28T20:36:53.202Z,0.89
2022-12-28T20:39:19.831Z,0.90
2022-12-28T20:42:05.431Z,0.90
2022-12-28T20:44:32.509Z,0.89
2022-12-28T20:47:00.018Z,0.89
2022-12-28T20:49:27.014Z,0.88
2022-12-28T21:18:41.710Z,0.82
2022-12-28T21:21:16.633Z,0.86
2022-12-28T21:23:43.475Z,0.85
2022-12-28T21:26:15.124Z,0.85
2022-12-28T21:28:42.372Z,0.84
2022-12-28T21:31:10.239Z,0.84
2022-12-28T21:33:37.651Z,0.83
2022-12-28T21:36:06.224Z,0.83
2022-12-28T21:38:33.131Z,0.82
2022-12-28T21:41:03.754Z,0.82
2022-12-28T21:43:30.511Z,0.81
2022-12-28T21:46:02.154Z,0.82
2022-12-28T21:48:35.830Z,0.82
2022-12-28T21:51:27.484Z,0.83
2022-12-28T21:53:54.602Z,0.84
2022-12-28T21:56:21.338Z,0.84
2022-12-28T21:58:48.182Z,0.85
2022-12-28T22:01:33.866Z,0.85
2022-12-28T22:04:19.419Z,0.86
2022-12-28T22:06:46.219Z,0.85
2022-12-28T22:09:31.649Z,0.85
2022-12-28T22:12:21.477Z,0.86
2022-12-28T22:14:48.188Z,0.87
2022-12-28T22:17:14.942Z,0.88
2022-12-28T22:19:41.790Z,0.88
2022-12-28T22:22:08.555Z,0.87
2022-12-28T22:24:35.255Z,0.86
2022-12-28T22:27:02.105Z,0.84
2022-12-28T22:29:28.732Z,0.82
2022-12-28T22:31:55.501Z,0.85
2022-12-28T22:34:22.326Z,0.82
2022-12-28T22:36:49.154Z,0.82
2022-12-28T22:39:15.742Z,0.82
2022-12-28T22:41:42.424Z,0.81
2022-12-28T22:44:09.529Z,0.79
2022-12-28T22:46:36.421Z,0.80
2022-12-28T22:49:03.095Z,0.80
2022-12-28T22:51:29.772Z,0.79
2022-12-28T22:53:56.528Z,0.79
2022-12-28T22:56:23.239Z,0.78
2022-12-28T22:58:50.004Z,0.79
2022-12-28T23:01:18.139Z,0.80
2022-12-28T23:03:45.629Z,0.81
2022-12-28T23:06:13.369Z,0.82
2022-12-28T23:08:40.327Z,0.83
2022-12-28T23:11:28.798Z,0.84
2022-12-28T23:13:55.839Z,0.84
2022-12-28T23:16:22.565Z,0.86
2022-12-28T23:19:07.988Z,0.84
2022-12-28T23:21:53.451Z,0.89
2022-12-28T23:24:38.846Z,0.92
2022-12-28T23:27:20.689Z,0.96
2022-12-28T23:29:47.421Z,0.98
2022-12-28T23:32:14.157Z,1.00
2022-12-28T23:34:40.846Z,1.04
2022-12-28T23:37:07.552Z,1.07
2022-12-28T23:39:34.243Z,1.09
2022-12-28T23:42:00.946Z,1.10
2022-12-28T23:44:27.752Z,1.12
2022-12-28T23:46:59.007Z,1.13
2022-12-28T23:49:26.429Z,1.15
2022-12-28T23:51:53.245Z,1.16
2022-12-28T23:54:19.945Z,1.16
2022-12-28T23:56:47.288Z,1.18
2022-12-28T23:59:14.038Z,1.18
